sensor_id;sensor_type;location;lat;lon;timestamp;P1;durP1;ratioP1;P2;durP2;ratioP2
73136;SDS011;62977;45.636;11.750;2022-12-07T00:00:30;68.97;;;19.60;;
73136;SDS011;62977;45.636;11.750;2022-12-07T00:02:56;35.45;;;19.45;;
73136;SDS011;62977;45.636;11.750;2022-12-07T00:05:21;33.93;;;18.80;;
73136;SDS011;62977;45.636;11.750;2022-12-07T00:07:47;33.63;;;16.70;;
73136;SDS011;62977;45.636;11.750;2022-12-07T00:10:14;31.77;;;18.50;;
73136;SDS011;62977;45.636;11.750;2022-12-07T00:12:39;35.80;;;19.52;;
73136;SDS011;62977;45.636;11.750;2022-12-07T00:15:05;30.03;;;17.73;;
73136;SDS011;62977;45.636;11.750;2022-12-07T00:17:31;35.10;;;19.83;;
73136;SDS011;62977;45.636;11.750;2022-12-07T00:19:58;29.42;;;17.70;;
73136;SDS011;62977;45.636;11.750;2022-12-07T00:22:24;32.87;;;18.77;;
73136;SDS011;62977;45.636;11.750;2022-12-07T00:24:50;37.33;;;20.13;;
73136;SDS011;62977;45.636;11.750;2022-12-07T00:27:15;44.27;;;21.90;;
73136;SDS011;62977;45.636;11.750;2022-12-07T00:29:41;43.08;;;21.42;;
73136;SDS011;62977;45.636;11.750;2022-12-07T00:32:06;37.93;;;19.77;;
73136;SDS011;62977;45.636;11.750;2022-12-07T00:34:32;36.88;;;19.25;;
73136;SDS011;62977;45.636;11.750;2022-12-07T00:36:58;32.43;;;19.50;;
73136;SDS011;62977;45.636;11.750;2022-12-07T00:39:23;34.92;;;18.10;;
73136;SDS011;62977;45.636;11.750;2022-12-07T00:41:49;34.07;;;18.33;;
73136;SDS011;62977;45.636;11.750;2022-12-07T00:44:15;28.15;;;17.77;;
73136;SDS011;62977;45.636;11.750;2022-12-07T00:46:41;31.20;;;17.60;;
73136;SDS011;62977;45.636;11.750;2022-12-07T00:49:06;30.67;;;16.90;;
73136;SDS011;62977;45.636;11.750;2022-12-07T00:51:32;32.33;;;16.17;;
73136;SDS011;62977;45.636;11.750;2022-12-07T00:53:57;30.40;;;16.50;;
73136;SDS011;62977;45.636;11.750;2022-12-07T00:56:24;30.93;;;17.00;;
73136;SDS011;62977;45.636;11.750;2022-12-07T00:58:53;30.35;;;17.33;;
73136;SDS011;62977;45.636;11.750;2022-12-07T01:01:25;29.52;;;17.35;;
73136;SDS011;62977;45.636;11.750;2022-12-07T01:03:52;32.03;;;17.43;;
73136;SDS011;62977;45.636;11.750;2022-12-07T01:06:18;32.70;;;16.77;;
73136;SDS011;62977;45.636;11.750;2022-12-07T01:08:45;29.42;;;16.58;;
73136;SDS011;62977;45.636;11.750;2022-12-07T01:11:15;30.00;;;15.63;;
73136;SDS011;62977;45.636;11.750;2022-12-07T01:13:43;31.02;;;15.60;;
73136;SDS011;62977;45.636;11.750;2022-12-07T01:16:10;41.60;;;18.30;;
73136;SDS011;62977;45.636;11.750;2022-12-07T01:18:39;30.50;;;16.02;;
73136;SDS011;62977;45.636;11.750;2022-12-07T01:21:06;30.73;;;14.70;;
73136;SDS011;62977;45.636;11.750;2022-12-07T01:23:36;26.67;;;14.83;;
73136;SDS011;62977;45.636;11.750;2022-12-07T01:26:04;39.60;;;14.82;;
73136;SDS011;62977;45.636;11.750;2022-12-07T01:28:31;33.70;;;15.00;;
73136;SDS011;62977;45.636;11.750;2022-12-07T01:30:58;26.50;;;14.53;;
73136;SDS011;62977;45.636;11.750;2022-12-07T01:33:29;26.13;;;15.53;;
73136;SDS011;62977;45.636;11.750;2022-12-07T01:36:01;28.90;;;14.32;;
73136;SDS011;62977;45.636;11.750;2022-12-07T01:38:37;24.83;;;14.23;;
73136;SDS011;62977;45.636;11.750;2022-12-07T01:41:02;24.53;;;15.73;;
73136;SDS011;62977;45.636;11.750;2022-12-07T01:43:32;23.20;;;13.52;;
73136;SDS011;62977;45.636;11.750;2022-12-07T01:45:59;24.27;;;13.73;;
73136;SDS011;62977;45.636;11.750;2022-12-07T01:48:26;24.08;;;14.05;;
73136;SDS011;62977;45.636;11.750;2022-12-07T01:50:56;23.53;;;14.60;;
73136;SDS011;62977;45.636;11.750;2022-12-07T01:53:26;23.75;;;14.73;;
73136;SDS011;62977;45.636;11.750;2022-12-07T01:55:55;25.70;;;14.07;;
73136;SDS011;62977;45.636;11.750;2022-12-07T01:58:22;29.08;;;15.85;;
73136;SDS011;62977;45.636;11.750;2022-12-07T02:00:49;28.42;;;15.40;;
73136;SDS011;62977;45.636;11.750;2022-12-07T02:03:25;34.00;;;17.67;;
73136;SDS011;62977;45.636;11.750;2022-12-07T02:05:57;66.25;;;31.70;;
73136;SDS011;62977;45.636;11.750;2022-12-07T02:08:24;84.15;;;38.78;;
73136;SDS011;62977;45.636;11.750;2022-12-07T02:10:50;48.97;;;24.93;;
73136;SDS011;62977;45.636;11.750;2022-12-07T02:13:20;31.00;;;18.00;;
73136;SDS011;62977;45.636;11.750;2022-12-07T02:27:46;22.45;;;12.82;;
73136;SDS011;62977;45.636;11.750;2022-12-07T02:30:20;24.33;;;13.85;;
73136;SDS011;62977;45.636;11.750;2022-12-07T02:33:22;27.48;;;14.57;;
73136;SDS011;62977;45.636;11.750;2022-12-07T02:35:43;23.37;;;13.20;;
73136;SDS011;62977;45.636;11.750;2022-12-07T02:38:28;23.10;;;12.68;;
73136;SDS011;62977;45.636;11.750;2022-12-07T02:41:21;26.30;;;13.15;;
73136;SDS011;62977;45.636;11.750;2022-12-07T02:43:59;23.92;;;14.35;;
73136;SDS011;62977;45.636;11.750;2022-12-07T02:46:29;22.63;;;13.05;;
73136;SDS011;62977;45.636;11.750;2022-12-07T02:49:02;22.87;;;13.17;;
73136;SDS011;62977;45.636;11.750;2022-12-07T02:51:32;21.17;;;12.68;;
73136;SDS011;62977;45.636;11.750;2022-12-07T02:53:58;24.92;;;12.85;;
73136;SDS011;62977;45.636;11.750;2022-12-07T02:56:30;20.20;;;12.45;;
73136;SDS011;62977;45.636;11.750;2022-12-07T03:10:21;38.60;;;21.73;;
73136;SDS011;62977;45.636;11.750;2022-12-07T03:13:05;32.95;;;17.45;;
73136;SDS011;62977;45.636;11.750;2022-12-07T03:18:39;33.92;;;18.00;;
73136;SDS011;62977;45.636;11.750;2022-12-07T03:21:17;34.33;;;18.08;;
73136;SDS011;62977;45.636;11.750;2022-12-07T03:23:48;34.08;;;18.48;;
73136;SDS011;62977;45.636;11.750;2022-12-07T03:26:18;55.30;;;25.05;;
73136;SDS011;62977;45.636;11.750;2022-12-07T03:28:49;33.50;;;15.67;;
73136;SDS011;62977;45.636;11.750;2022-12-07T03:31:21;36.63;;;18.35;;
73136;SDS011;62977;45.636;11.750;2022-12-07T03:34:00;33.38;;;16.15;;
73136;SDS011;62977;45.636;11.750;2022-12-07T03:41:54;21.87;;;11.70;;
73136;SDS011;62977;45.636;11.750;2022-12-07T03:44:21;21.02;;;11.82;;
73136;SDS011;62977;45.636;11.750;2022-12-07T03:47:12;24.98;;;12.68;;
73136;SDS011;62977;45.636;11.750;2022-12-07T03:52:45;23.55;;;12.82;;
73136;SDS011;62977;45.636;11.750;2022-12-07T03:55:18;23.87;;;12.73;;
73136;SDS011;62977;45.636;11.750;2022-12-07T03:57:50;27.63;;;14.10;;
73136;SDS011;62977;45.636;11.750;2022-12-07T04:00:20;26.38;;;12.40;;
73136;SDS011;62977;45.636;11.750;2022-12-07T04:02:46;27.13;;;13.77;;
73136;SDS011;62977;45.636;11.750;2022-12-07T04:05:12;23.27;;;12.40;;
73136;SDS011;62977;45.636;11.750;2022-12-07T04:07:38;33.00;;;15.13;;
73136;SDS011;62977;45.636;11.750;2022-12-07T04:10:04;28.30;;;13.40;;
73136;SDS011;62977;45.636;11.750;2022-12-07T04:12:30;23.77;;;12.48;;
73136;SDS011;62977;45.636;11.750;2022-12-07T04:14:56;27.45;;;14.57;;
73136;SDS011;62977;45.636;11.750;2022-12-07T04:17:21;24.73;;;13.87;;
73136;SDS011;62977;45.636;11.750;2022-12-07T04:19:47;24.42;;;12.88;;
73136;SDS011;62977;45.636;11.750;2022-12-07T04:22:13;25.27;;;13.73;;
73136;SDS011;62977;45.636;11.750;2022-12-07T04:24:38;21.90;;;13.60;;
73136;SDS011;62977;45.636;11.750;2022-12-07T04:27:04;26.67;;;12.73;;
73136;SDS011;62977;45.636;11.750;2022-12-07T04:29:30;24.30;;;13.30;;
73136;SDS011;62977;45.636;11.750;2022-12-07T04:31:55;25.23;;;13.23;;
73136;SDS011;62977;45.636;11.750;2022-12-07T04:34:21;26.88;;;14.75;;
73136;SDS011;62977;45.636;11.750;2022-12-07T04:36:47;28.17;;;14.77;;
73136;SDS011;62977;45.636;11.750;2022-12-07T04:39:20;30.80;;;13.68;;
73136;SDS011;62977;45.636;11.750;2022-12-07T04:41:54;25.58;;;13.90;;
73136;SDS011;62977;45.636;11.750;2022-12-07T04:44:20;25.93;;;14.07;;
73136;SDS011;62977;45.636;11.750;2022-12-07T04:46:47;26.02;;;12.93;;
73136;SDS011;62977;45.636;11.750;2022-12-07T04:49:13;23.83;;;13.95;;
73136;SDS011;62977;45.636;11.750;2022-12-07T04:51:41;25.33;;;13.98;;
73136;SDS011;62977;45.636;11.750;2022-12-07T04:54:07;24.77;;;13.20;;
73136;SDS011;62977;45.636;11.750;2022-12-07T04:56:33;26.70;;;14.03;;
73136;SDS011;62977;45.636;11.750;2022-12-07T04:59:00;22.75;;;12.63;;
73136;SDS011;62977;45.636;11.750;2022-12-07T05:01:27;25.17;;;12.25;;
73136;SDS011;62977;45.636;11.750;2022-12-07T05:03:52;25.13;;;12.67;;
73136;SDS011;62977;45.636;11.750;2022-12-07T05:06:18;23.98;;;11.90;;
73136;SDS011;62977;45.636;11.750;2022-12-07T05:08:44;23.73;;;12.85;;
73136;SDS011;62977;45.636;11.750;2022-12-07T05:11:11;25.92;;;12.20;;
73136;SDS011;62977;45.636;11.750;2022-12-07T05:14:00;22.73;;;12.73;;
73136;SDS011;62977;45.636;11.750;2022-12-07T05:16:26;25.67;;;13.35;;
73136;SDS011;62977;45.636;11.750;2022-12-07T05:18:52;23.80;;;12.60;;
73136;SDS011;62977;45.636;11.750;2022-12-07T05:21:18;21.67;;;12.25;;
73136;SDS011;62977;45.636;11.750;2022-12-07T05:23:44;23.47;;;12.60;;
73136;SDS011;62977;45.636;11.750;2022-12-07T05:26:10;24.48;;;13.10;;
73136;SDS011;62977;45.636;11.750;2022-12-07T05:28:35;26.33;;;12.80;;
73136;SDS011;62977;45.636;11.750;2022-12-07T05:31:01;24.30;;;13.02;;
73136;SDS011;62977;45.636;11.750;2022-12-07T05:33:27;22.87;;;13.00;;
73136;SDS011;62977;45.636;11.750;2022-12-07T05:35:52;27.63;;;13.18;;
73136;SDS011;62977;45.636;11.750;2022-12-07T05:38:18;23.77;;;13.00;;
73136;SDS011;62977;45.636;11.750;2022-12-07T05:40:44;26.25;;;13.30;;
73136;SDS011;62977;45.636;11.750;2022-12-07T05:43:10;30.80;;;15.67;;
73136;SDS011;62977;45.636;11.750;2022-12-07T05:45:35;28.75;;;16.27;;
73136;SDS011;62977;45.636;11.750;2022-12-07T05:48:01;29.70;;;15.43;;
73136;SDS011;62977;45.636;11.750;2022-12-07T05:50:27;28.92;;;14.80;;
73136;SDS011;62977;45.636;11.750;2022-12-07T05:52:53;28.17;;;13.83;;
73136;SDS011;62977;45.636;11.750;2022-12-07T05:55:19;27.60;;;14.17;;
73136;SDS011;62977;45.636;11.750;2022-12-07T05:57:44;27.42;;;13.95;;
73136;SDS011;62977;45.636;11.750;2022-12-07T06:00:30;28.98;;;13.82;;
73136;SDS011;62977;45.636;11.750;2022-12-07T06:02:56;21.00;;;12.43;;
73136;SDS011;62977;45.636;11.750;2022-12-07T06:05:22;22.48;;;10.90;;
73136;SDS011;62977;45.636;11.750;2022-12-07T06:07:48;22.90;;;10.70;;
73136;SDS011;62977;45.636;11.750;2022-12-07T06:10:13;23.42;;;10.68;;
73136;SDS011;62977;45.636;11.750;2022-12-07T06:12:39;23.33;;;13.03;;
73136;SDS011;62977;45.636;11.750;2022-12-07T06:15:07;25.48;;;12.15;;
73136;SDS011;62977;45.636;11.750;2022-12-07T06:17:35;21.42;;;11.45;;
73136;SDS011;62977;45.636;11.750;2022-12-07T06:20:02;23.55;;;11.60;;
73136;SDS011;62977;45.636;11.750;2022-12-07T06:22:28;20.42;;;11.80;;
73136;SDS011;62977;45.636;11.750;2022-12-07T06:24:54;22.80;;;11.17;;
73136;SDS011;62977;45.636;11.750;2022-12-07T06:27:19;19.17;;;9.83;;
73136;SDS011;62977;45.636;11.750;2022-12-07T06:29:45;22.58;;;11.77;;
73136;SDS011;62977;45.636;11.750;2022-12-07T06:32:11;23.00;;;10.90;;
73136;SDS011;62977;45.636;11.750;2022-12-07T06:34:37;20.35;;;10.68;;
73136;SDS011;62977;45.636;11.750;2022-12-07T06:37:02;19.90;;;11.27;;
73136;SDS011;62977;45.636;11.750;2022-12-07T06:39:28;25.17;;;12.17;;
73136;SDS011;62977;45.636;11.750;2022-12-07T06:41:54;28.60;;;14.70;;
73136;SDS011;62977;45.636;11.750;2022-12-07T06:44:21;35.08;;;17.77;;
73136;SDS011;62977;45.636;11.750;2022-12-07T06:46:47;35.17;;;15.80;;
73136;SDS011;62977;45.636;11.750;2022-12-07T06:49:14;31.73;;;16.80;;
73136;SDS011;62977;45.636;11.750;2022-12-07T06:51:40;37.95;;;16.65;;
73136;SDS011;62977;45.636;11.750;2022-12-07T06:54:07;20.83;;;10.98;;
73136;SDS011;62977;45.636;11.750;2022-12-07T06:56:33;21.05;;;11.15;;
73136;SDS011;62977;45.636;11.750;2022-12-07T06:58:59;24.67;;;11.20;;
73136;SDS011;62977;45.636;11.750;2022-12-07T07:01:25;16.23;;;8.23;;
73136;SDS011;62977;45.636;11.750;2022-12-07T07:03:50;11.27;;;5.37;;
73136;SDS011;62977;45.636;11.750;2022-12-07T07:06:17;16.38;;;7.22;;
73136;SDS011;62977;45.636;11.750;2022-12-07T07:08:43;15.35;;;7.00;;
73136;SDS011;62977;45.636;11.750;2022-12-07T07:11:09;14.57;;;6.30;;
73136;SDS011;62977;45.636;11.750;2022-12-07T07:13:36;13.32;;;5.90;;
73136;SDS011;62977;45.636;11.750;2022-12-07T07:16:02;13.43;;;6.28;;
73136;SDS011;62977;45.636;11.750;2022-12-07T07:18:28;12.43;;;6.03;;
73136;SDS011;62977;45.636;11.750;2022-12-07T07:20:54;15.82;;;7.38;;
73136;SDS011;62977;45.636;11.750;2022-12-07T07:23:20;17.65;;;8.27;;
73136;SDS011;62977;45.636;11.750;2022-12-07T07:25:47;19.00;;;8.75;;
73136;SDS011;62977;45.636;11.750;2022-12-07T07:28:13;16.83;;;8.70;;
73136;SDS011;62977;45.636;11.750;2022-12-07T07:30:40;21.90;;;9.45;;
73136;SDS011;62977;45.636;11.750;2022-12-07T07:33:06;19.10;;;8.30;;
73136;SDS011;62977;45.636;11.750;2022-12-07T07:35:32;16.38;;;8.27;;
73136;SDS011;62977;45.636;11.750;2022-12-07T07:37:59;15.60;;;7.93;;
73136;SDS011;62977;45.636;11.750;2022-12-07T07:40:25;19.90;;;9.50;;
73136;SDS011;62977;45.636;11.750;2022-12-07T07:42:53;19.38;;;10.05;;
73136;SDS011;62977;45.636;11.750;2022-12-07T07:45:20;22.50;;;10.77;;
73136;SDS011;62977;45.636;11.750;2022-12-07T07:47:47;21.60;;;9.52;;
73136;SDS011;62977;45.636;11.750;2022-12-07T07:50:13;19.83;;;9.43;;
73136;SDS011;62977;45.636;11.750;2022-12-07T07:52:39;22.17;;;8.77;;
73136;SDS011;62977;45.636;11.750;2022-12-07T07:55:06;24.92;;;10.52;;
73136;SDS011;62977;45.636;11.750;2022-12-07T07:57:35;22.65;;;10.60;;
73136;SDS011;62977;45.636;11.750;2022-12-07T08:00:06;23.75;;;11.02;;
73136;SDS011;62977;45.636;11.750;2022-12-07T08:02:33;22.43;;;11.70;;
73136;SDS011;62977;45.636;11.750;2022-12-07T08:04:59;26.77;;;13.40;;
73136;SDS011;62977;45.636;11.750;2022-12-07T08:07:26;28.07;;;12.77;;
73136;SDS011;62977;45.636;11.750;2022-12-07T08:09:52;30.05;;;12.80;;
73136;SDS011;62977;45.636;11.750;2022-12-07T08:12:18;25.38;;;11.52;;
73136;SDS011;62977;45.636;11.750;2022-12-07T08:14:44;21.17;;;11.00;;
73136;SDS011;62977;45.636;11.750;2022-12-07T08:17:09;17.45;;;9.75;;
73136;SDS011;62977;45.636;11.750;2022-12-07T08:19:35;24.73;;;10.97;;
73136;SDS011;62977;45.636;11.750;2022-12-07T08:22:01;18.73;;;10.05;;
73136;SDS011;62977;45.636;11.750;2022-12-07T08:24:27;23.65;;;9.48;;
73136;SDS011;62977;45.636;11.750;2022-12-07T08:26:53;19.80;;;10.03;;
73136;SDS011;62977;45.636;11.750;2022-12-07T08:29:18;19.65;;;10.38;;
73136;SDS011;62977;45.636;11.750;2022-12-07T08:31:44;18.50;;;8.90;;
73136;SDS011;62977;45.636;11.750;2022-12-07T08:34:10;18.90;;;9.63;;
73136;SDS011;62977;45.636;11.750;2022-12-07T08:36:37;14.98;;;8.65;;
73136;SDS011;62977;45.636;11.750;2022-12-07T08:39:03;18.37;;;8.10;;
73136;SDS011;62977;45.636;11.750;2022-12-07T08:41:28;15.57;;;8.73;;
73136;SDS011;62977;45.636;11.750;2022-12-07T08:43:54;16.60;;;9.00;;
73136;SDS011;62977;45.636;11.750;2022-12-07T08:46:24;18.70;;;9.10;;
73136;SDS011;62977;45.636;11.750;2022-12-07T08:49:46;18.00;;;9.35;;
73136;SDS011;62977;45.636;11.750;2022-12-07T08:52:01;14.38;;;8.05;;
73136;SDS011;62977;45.636;11.750;2022-12-07T08:54:29;18.63;;;9.20;;
73136;SDS011;62977;45.636;11.750;2022-12-07T08:56:55;17.17;;;8.63;;
73136;SDS011;62977;45.636;11.750;2022-12-07T08:59:21;20.30;;;9.23;;
73136;SDS011;62977;45.636;11.750;2022-12-07T09:01:48;17.40;;;9.18;;
73136;SDS011;62977;45.636;11.750;2022-12-07T09:04:14;27.77;;;13.47;;
73136;SDS011;62977;45.636;11.750;2022-12-07T09:06:40;27.73;;;11.68;;
73136;SDS011;62977;45.636;11.750;2022-12-07T09:09:06;26.85;;;11.65;;
73136;SDS011;62977;45.636;11.750;2022-12-07T09:11:33;25.90;;;10.27;;
73136;SDS011;62977;45.636;11.750;2022-12-07T09:13:59;26.80;;;11.87;;
73136;SDS011;62977;45.636;11.750;2022-12-07T09:16:24;26.08;;;11.07;;
73136;SDS011;62977;45.636;11.750;2022-12-07T09:18:50;20.90;;;9.90;;
73136;SDS011;62977;45.636;11.750;2022-12-07T09:21:16;29.20;;;11.52;;
73136;SDS011;62977;45.636;11.750;2022-12-07T09:23:42;20.23;;;10.33;;
73136;SDS011;62977;45.636;11.750;2022-12-07T09:26:08;17.17;;;9.50;;
73136;SDS011;62977;45.636;11.750;2022-12-07T09:28:33;27.90;;;10.60;;
73136;SDS011;62977;45.636;11.750;2022-12-07T09:30:59;29.65;;;11.25;;
73136;SDS011;62977;45.636;11.750;2022-12-07T09:33:25;25.92;;;10.90;;
73136;SDS011;62977;45.636;11.750;2022-12-07T09:35:52;38.80;;;13.80;;
73136;SDS011;62977;45.636;11.750;2022-12-07T09:38:18;28.05;;;12.50;;
73136;SDS011;62977;45.636;11.750;2022-12-07T09:40:44;32.65;;;13.32;;
73136;SDS011;62977;45.636;11.750;2022-12-07T09:43:15;32.20;;;13.25;;
73136;SDS011;62977;45.636;11.750;2022-12-07T09:45:50;41.88;;;15.95;;
73136;SDS011;62977;45.636;11.750;2022-12-07T09:48:19;50.17;;;15.87;;
73136;SDS011;62977;45.636;11.750;2022-12-07T09:50:49;46.58;;;16.55;;
73136;SDS011;62977;45.636;11.750;2022-12-07T09:53:20;42.03;;;15.13;;
73136;SDS011;62977;45.636;11.750;2022-12-07T09:55:54;37.03;;;14.35;;
73136;SDS011;62977;45.636;11.750;2022-12-07T09:58:21;40.28;;;13.93;;
73136;SDS011;62977;45.636;11.750;2022-12-07T10:00:53;27.90;;;11.23;;
73136;SDS011;62977;45.636;11.750;2022-12-07T10:03:23;22.48;;;10.52;;
73136;SDS011;62977;45.636;11.750;2022-12-07T10:05:52;19.35;;;9.23;;
73136;SDS011;62977;45.636;11.750;2022-12-07T10:08:18;18.77;;;9.65;;
73136;SDS011;62977;45.636;11.750;2022-12-07T10:10:45;14.73;;;8.13;;
73136;SDS011;62977;45.636;11.750;2022-12-07T10:13:14;14.07;;;8.13;;
73136;SDS011;62977;45.636;11.750;2022-12-07T10:15:54;14.63;;;7.78;;
73136;SDS011;62977;45.636;11.750;2022-12-07T10:18:34;17.25;;;7.40;;
73136;SDS011;62977;45.636;11.750;2022-12-07T10:21:16;14.73;;;7.57;;
73136;SDS011;62977;45.636;11.750;2022-12-07T10:24:04;13.48;;;6.68;;
73136;SDS011;62977;45.636;11.750;2022-12-07T10:29:24;15.25;;;8.75;;
73136;SDS011;62977;45.636;11.750;2022-12-07T10:31:54;13.15;;;7.45;;
73136;SDS011;62977;45.636;11.750;2022-12-07T10:34:24;13.05;;;7.93;;
73136;SDS011;62977;45.636;11.750;2022-12-07T10:36:52;13.63;;;7.68;;
73136;SDS011;62977;45.636;11.750;2022-12-07T10:39:20;18.77;;;10.37;;
73136;SDS011;62977;45.636;11.750;2022-12-07T10:44:29;15.73;;;8.20;;
73136;SDS011;62977;45.636;11.750;2022-12-07T10:47:18;19.20;;;9.18;;
73136;SDS011;62977;45.636;11.750;2022-12-07T11:15:18;13.95;;;7.32;;
73136;SDS011;62977;45.636;11.750;2022-12-07T11:20:37;11.20;;;6.43;;
73136;SDS011;62977;45.636;11.750;2022-12-07T11:23:27;15.13;;;6.50;;
73136;SDS011;62977;45.636;11.750;2022-12-07T11:34:43;14.40;;;6.77;;
73136;SDS011;62977;45.636;11.750;2022-12-07T11:37:23;13.38;;;6.60;;
73136;SDS011;62977;45.636;11.750;2022-12-07T11:39:56;13.68;;;6.75;;
73136;SDS011;62977;45.636;11.750;2022-12-07T11:42:31;11.05;;;5.93;;
73136;SDS011;62977;45.636;11.750;2022-12-07T11:45:09;13.00;;;6.57;;
73136;SDS011;62977;45.636;11.750;2022-12-07T11:47:48;13.83;;;5.67;;
73136;SDS011;62977;45.636;11.750;2022-12-07T11:58:17;8.93;;;3.25;;
73136;SDS011;62977;45.636;11.750;2022-12-07T12:00:44;5.83;;;2.90;;
73136;SDS011;62977;45.636;11.750;2022-12-07T12:03:15;6.80;;;3.20;;
73136;SDS011;62977;45.636;11.750;2022-12-07T12:05:48;9.02;;;4.00;;
73136;SDS011;62977;45.636;11.750;2022-12-07T12:08:16;8.98;;;4.20;;
73136;SDS011;62977;45.636;11.750;2022-12-07T12:10:59;8.13;;;4.00;;
73136;SDS011;62977;45.636;11.750;2022-12-07T12:21:40;8.90;;;4.80;;
73136;SDS011;62977;45.636;11.750;2022-12-07T12:24:14;7.43;;;4.10;;
73136;SDS011;62977;45.636;11.750;2022-12-07T12:26:49;9.03;;;5.10;;
73136;SDS011;62977;45.636;11.750;2022-12-07T12:32:12;8.82;;;5.28;;
73136;SDS011;62977;45.636;11.750;2022-12-07T12:34:57;8.63;;;4.40;;
73136;SDS011;62977;45.636;11.750;2022-12-07T12:50:24;9.05;;;5.10;;
73136;SDS011;62977;45.636;11.750;2022-12-07T13:00:49;9.93;;;5.07;;
73136;SDS011;62977;45.636;11.750;2022-12-07T13:03:53;10.38;;;5.20;;
73136;SDS011;62977;45.636;11.750;2022-12-07T13:06:31;8.95;;;5.15;;
73136;SDS011;62977;45.636;11.750;2022-12-07T13:09:00;8.48;;;4.60;;
73136;SDS011;62977;45.636;11.750;2022-12-07T13:11:37;8.65;;;4.50;;
73136;SDS011;62977;45.636;11.750;2022-12-07T13:17:54;10.77;;;5.22;;
73136;SDS011;62977;45.636;11.750;2022-12-07T13:20:02;8.23;;;5.32;;
73136;SDS011;62977;45.636;11.750;2022-12-07T13:28:35;8.70;;;5.20;;
73136;SDS011;62977;45.636;11.750;2022-12-07T13:33:44;9.27;;;5.10;;
73136;SDS011;62977;45.636;11.750;2022-12-07T13:36:24;8.80;;;5.22;;
73136;SDS011;62977;45.636;11.750;2022-12-07T13:38:52;10.68;;;5.47;;
73136;SDS011;62977;45.636;11.750;2022-12-07T13:41:19;11.23;;;5.20;;
73136;SDS011;62977;45.636;11.750;2022-12-07T13:43:54;8.80;;;5.72;;
73136;SDS011;62977;45.636;11.750;2022-12-07T13:46:31;12.95;;;5.90;;
73136;SDS011;62977;45.636;11.750;2022-12-07T13:49:17;11.43;;;6.00;;
73136;SDS011;62977;45.636;11.750;2022-12-07T13:51:46;9.85;;;5.65;;
73136;SDS011;62977;45.636;11.750;2022-12-07T13:54:12;10.30;;;5.80;;
73136;SDS011;62977;45.636;11.750;2022-12-07T13:56:39;10.68;;;6.30;;
73136;SDS011;62977;45.636;11.750;2022-12-07T13:59:15;13.95;;;7.53;;
73136;SDS011;62977;45.636;11.750;2022-12-07T14:01:52;14.27;;;7.43;;
73136;SDS011;62977;45.636;11.750;2022-12-07T14:04:30;13.17;;;7.77;;
73136;SDS011;62977;45.636;11.750;2022-12-07T14:07:00;14.40;;;7.30;;
73136;SDS011;62977;45.636;11.750;2022-12-07T14:09:52;17.00;;;8.70;;
73136;SDS011;62977;45.636;11.750;2022-12-07T14:12:23;14.48;;;7.72;;
73136;SDS011;62977;45.636;11.750;2022-12-07T14:14:50;31.13;;;11.93;;
73136;SDS011;62977;45.636;11.750;2022-12-07T14:17:19;19.07;;;9.57;;
73136;SDS011;62977;45.636;11.750;2022-12-07T14:22:27;14.07;;;8.07;;
73136;SDS011;62977;45.636;11.750;2022-12-07T14:24:58;16.42;;;9.13;;
73136;SDS011;62977;45.636;11.750;2022-12-07T14:27:29;15.15;;;9.15;;
73136;SDS011;62977;45.636;11.750;2022-12-07T14:29:59;15.03;;;8.50;;
73136;SDS011;62977;45.636;11.750;2022-12-07T14:32:29;14.48;;;7.80;;
73136;SDS011;62977;45.636;11.750;2022-12-07T14:35:00;13.05;;;7.93;;
73136;SDS011;62977;45.636;11.750;2022-12-07T14:37:37;14.95;;;7.30;;
73136;SDS011;62977;45.636;11.750;2022-12-07T14:40:05;16.55;;;8.95;;
73136;SDS011;62977;45.636;11.750;2022-12-07T14:42:31;14.17;;;8.43;;
73136;SDS011;62977;45.636;11.750;2022-12-07T14:44:58;13.35;;;8.50;;
73136;SDS011;62977;45.636;11.750;2022-12-07T14:47:24;16.05;;;8.90;;
73136;SDS011;62977;45.636;11.750;2022-12-07T14:49:51;19.27;;;9.95;;
73136;SDS011;62977;45.636;11.750;2022-12-07T14:52:21;18.90;;;9.15;;
73136;SDS011;62977;45.636;11.750;2022-12-07T14:54:51;17.57;;;9.00;;
73136;SDS011;62977;45.636;11.750;2022-12-07T14:57:17;15.68;;;9.63;;
73136;SDS011;62977;45.636;11.750;2022-12-07T14:59:43;28.13;;;11.88;;
73136;SDS011;62977;45.636;11.750;2022-12-07T15:02:10;19.60;;;11.20;;
73136;SDS011;62977;45.636;11.750;2022-12-07T15:04:37;19.63;;;10.82;;
73136;SDS011;62977;45.636;11.750;2022-12-07T15:07:04;20.42;;;10.65;;
73136;SDS011;62977;45.636;11.750;2022-12-07T15:09:30;19.50;;;10.67;;
73136;SDS011;62977;45.636;11.750;2022-12-07T15:11:56;21.40;;;10.35;;
73136;SDS011;62977;45.636;11.750;2022-12-07T15:14:22;19.70;;;10.15;;
73136;SDS011;62977;45.636;11.750;2022-12-07T15:16:48;22.30;;;11.43;;
73136;SDS011;62977;45.636;11.750;2022-12-07T15:19:18;27.38;;;12.00;;
73136;SDS011;62977;45.636;11.750;2022-12-07T15:21:48;19.88;;;12.18;;
73136;SDS011;62977;45.636;11.750;2022-12-07T15:24:14;20.43;;;12.67;;
73136;SDS011;62977;45.636;11.750;2022-12-07T15:26:40;20.15;;;11.60;;
73136;SDS011;62977;45.636;11.750;2022-12-07T15:29:06;23.75;;;11.20;;
73136;SDS011;62977;45.636;11.750;2022-12-07T15:31:33;24.40;;;11.80;;
73136;SDS011;62977;45.636;11.750;2022-12-07T15:33:59;18.77;;;11.05;;
73136;SDS011;62977;45.636;11.750;2022-12-07T15:36:26;18.67;;;10.38;;
73136;SDS011;62977;45.636;11.750;2022-12-07T15:38:53;19.98;;;10.50;;
73136;SDS011;62977;45.636;11.750;2022-12-07T15:41:19;21.67;;;10.50;;
73136;SDS011;62977;45.636;11.750;2022-12-07T15:43:45;22.03;;;10.37;;
73136;SDS011;62977;45.636;11.750;2022-12-07T15:46:30;25.90;;;10.73;;
73136;SDS011;62977;45.636;11.750;2022-12-07T15:49:00;24.88;;;12.40;;
73136;SDS011;62977;45.636;11.750;2022-12-07T15:51:27;26.92;;;14.32;;
73136;SDS011;62977;45.636;11.750;2022-12-07T15:53:52;26.03;;;14.27;;
73136;SDS011;62977;45.636;11.750;2022-12-07T15:56:19;34.50;;;16.48;;
73136;SDS011;62977;45.636;11.750;2022-12-07T15:58:44;30.58;;;16.05;;
73136;SDS011;62977;45.636;11.750;2022-12-07T16:01:14;33.47;;;19.50;;
73136;SDS011;62977;45.636;11.750;2022-12-07T16:03:42;31.58;;;17.80;;
73136;SDS011;62977;45.636;11.750;2022-12-07T16:06:08;28.88;;;17.73;;
73136;SDS011;62977;45.636;11.750;2022-12-07T16:08:34;28.52;;;17.25;;
73136;SDS011;62977;45.636;11.750;2022-12-07T16:11:03;30.93;;;18.23;;
73136;SDS011;62977;45.636;11.750;2022-12-07T16:13:30;34.92;;;18.67;;
73136;SDS011;62977;45.636;11.750;2022-12-07T16:15:56;33.42;;;19.10;;
73136;SDS011;62977;45.636;11.750;2022-12-07T16:18:22;36.10;;;18.73;;
73136;SDS011;62977;45.636;11.750;2022-12-07T16:20:48;32.13;;;18.13;;
73136;SDS011;62977;45.636;11.750;2022-12-07T16:23:14;28.38;;;16.77;;
73136;SDS011;62977;45.636;11.750;2022-12-07T16:25:40;28.58;;;16.63;;
73136;SDS011;62977;45.636;11.750;2022-12-07T16:28:06;32.67;;;17.43;;
73136;SDS011;62977;45.636;11.750;2022-12-07T16:30:33;37.53;;;19.33;;
73136;SDS011;62977;45.636;11.750;2022-12-07T16:32:59;40.05;;;21.20;;
73136;SDS011;62977;45.636;11.750;2022-12-07T16:35:24;33.55;;;18.38;;